»·PEaware :: APA1000 KEQY-KDTW

APA1000 :: KEQY-KDTW

FLIGHT INFORMATION

Flight Status: Arrived
Operator: Unknown
More flights by this operator :: More flights under this callsign
Pilot: Stacy K. (11621)
Aircraft: DEHAVILLAND DASH 8 200
(DH8B)
More flights by this aircraft type
Origin: KEQY Monroe
United States
Destination: KDTW Detroit Metro Wayne Co
United States
More flights between these airports :: More routes between these airports
Route: CLT JUH BKW HNN LOK TII CRL
File this flight plan on PilotEdge
Remarks:
Altitude:
(Current/Filed)
18,000ft
Speed:
(Current/Filed)
220kts
Departed: 21-Jul-19 10:56 AM
Arrived: 21-Jul-19 12:47 PM
Distance/Time
Traveled:
451nm/1:51
Distance/Time
To Go:
Arrived

Flight Plot

Page will automatically refresh every two minutes.

Flight plan parsing failed; only flown route is shown


Map Options




Map Legend


Flown Route
Filed Route
Departure Airport
Arrival Airport
Navaid (VOR, NDB)
Fix

Horizontal Profiles

Position Reports

Time Latitude Longitude Heading Altitude Ground
Speed
21-Jul-19 10:48 35.019418 -80.622566 318 684ft 0kts
21-Jul-19 10:49 35.019418 -80.622566 318 684ft 0kts
21-Jul-19 10:50 35.019418 -80.622566 318 684ft 0kts
21-Jul-19 10:51 35.019418 -80.622566 318 684ft 0kts
21-Jul-19 10:52 35.019418 -80.622566 318 684ft 0kts
21-Jul-19 10:53 35.019556 -80.622312 124 684ft 7kts
21-Jul-19 10:54 35.021351 -80.618362 47 684ft 23kts
21-Jul-19 10:55 35.024328 -80.614245 137 684ft 3kts
21-Jul-19 10:56 35.014223 -80.626166 227 1272ft 136kts
21-Jul-19 10:56 35.010245 -80.669765 307 2981ft 208kts
21-Jul-19 10:58 35.068225 -80.721191 305 5141ft 228kts
21-Jul-19 10:59 35.104010 -80.786554 299 6953ft 233kts
21-Jul-19 11:00 35.139327 -80.854330 299 8752ft 238kts
21-Jul-19 11:00 35.169164 -80.911407 299 10251ft 240kts
21-Jul-19 11:01 35.220952 -80.959744 348 12063ft 253kts
21-Jul-19 11:03 35.300128 -80.983825 344 14157ft 249kts
21-Jul-19 11:03 35.356405 -81.000538 345 15659ft 248kts
21-Jul-19 11:04 35.423700 -81.020343 346 17455ft 249kts
21-Jul-19 11:05 35.494840 -81.041317 346 18050ft 277kts
21-Jul-19 11:06 35.570658 -81.063663 346 18085ft 277kts
21-Jul-19 11:07 35.645122 -81.085605 346 18081ft 274kts
21-Jul-19 11:08 35.719015 -81.107496 346 18078ft 273kts
21-Jul-19 11:09 35.792886 -81.129445 346 18083ft 273kts
21-Jul-19 11:10 35.866928 -81.151474 346 18091ft 273kts
21-Jul-19 11:11 35.940795 -81.173518 346 18103ft 273kts
21-Jul-19 11:12 36.014477 -81.195528 346 18113ft 273kts
21-Jul-19 11:13 36.088565 -81.217709 345 18123ft 273kts
21-Jul-19 11:14 36.162573 -81.239921 345 18130ft 274kts
21-Jul-19 11:15 36.236694 -81.262194 345 18148ft 274kts
21-Jul-19 11:16 36.311076 -81.284595 345 18163ft 276kts
21-Jul-19 11:17 36.385243 -81.306969 345 18186ft 274kts
21-Jul-19 11:18 36.460249 -81.317963 7 18197ft 274kts
21-Jul-19 11:19 36.536263 -81.306782 6 18189ft 274kts
21-Jul-19 11:20 36.612037 -81.295814 6 18185ft 274kts
21-Jul-19 11:21 36.688006 -81.284765 6 18183ft 274kts
21-Jul-19 11:22 36.763667 -81.273735 6 18184ft 274kts
21-Jul-19 11:23 36.839583 -81.262624 6 18189ft 274kts
21-Jul-19 11:24 36.915264 -81.251557 6 18188ft 274kts
21-Jul-19 11:25 36.991172 -81.240430 6 18185ft 274kts
21-Jul-19 11:26 37.067069 -81.229261 6 18176ft 274kts
21-Jul-19 11:27 37.142978 -81.218073 6 18175ft 275kts
21-Jul-19 11:28 37.219035 -81.206856 6 18176ft 275kts
21-Jul-19 11:29 37.295101 -81.195613 6 18178ft 275kts
21-Jul-19 11:30 37.371315 -81.184307 6 18177ft 275kts
21-Jul-19 11:31 37.447385 -81.173012 6 18170ft 275kts
21-Jul-19 11:32 37.523455 -81.161691 6 18162ft 275kts
21-Jul-19 11:33 37.599579 -81.150314 6 18155ft 275kts
21-Jul-19 11:34 37.675722 -81.138958 6 18149ft 275kts
21-Jul-19 11:35 37.751748 -81.127576 6 18148ft 275kts
21-Jul-19 11:36 37.819791 -81.161479 321 18155ft 272kts
21-Jul-19 11:37 37.881770 -81.216703 323 18145ft 273kts
21-Jul-19 11:38 37.943733 -81.272752 322 18139ft 273kts
21-Jul-19 11:39 38.005397 -81.329312 322 18125ft 274kts
21-Jul-19 11:40 38.066774 -81.385747 322 18107ft 273kts
21-Jul-19 11:41 38.128280 -81.442431 322 18088ft 273kts
21-Jul-19 11:42 38.189720 -81.499163 322 18067ft 273kts
21-Jul-19 11:43 38.251116 -81.555977 322 18051ft 273kts
21-Jul-19 11:44 38.312722 -81.613107 322 18041ft 273kts
21-Jul-19 11:45 38.373969 -81.670026 322 18040ft 273kts
21-Jul-19 11:46 38.435341 -81.727183 322 18040ft 272kts
21-Jul-19 11:47 38.496421 -81.784182 322 18042ft 272kts
21-Jul-19 11:48 38.557834 -81.841632 321 18044ft 272kts
21-Jul-19 11:49 38.618884 -81.898858 321 18048ft 272kts
21-Jul-19 11:50 38.679837 -81.956111 321 18050ft 271kts
21-Jul-19 11:51 38.740727 -82.013401 321 18053ft 272kts
21-Jul-19 11:52 38.809911 -82.053336 336 18056ft 274kts
21-Jul-19 11:53 38.881449 -82.088503 336 18057ft 274kts
21-Jul-19 11:54 38.952763 -82.123648 336 18058ft 274kts
21-Jul-19 11:55 39.023400 -82.158399 336 18224ft 265kts
21-Jul-19 11:56 39.094604 -82.193508 335 18057ft 275kts
21-Jul-19 11:57 39.165776 -82.228858 335 18050ft 275kts
21-Jul-19 11:58 39.236886 -82.263985 335 18056ft 274kts
21-Jul-19 11:59 39.308100 -82.299520 335 18039ft 275kts
21-Jul-19 12:00 39.379006 -82.334879 335 18049ft 271kts
21-Jul-19 12:01 39.449345 -82.370002 334 18044ft 272kts
21-Jul-19 12:02 39.520271 -82.405807 335 18041ft 272kts
21-Jul-19 12:03 39.590989 -82.441093 334 18038ft 272kts
21-Jul-19 12:04 39.661624 -82.476647 334 18034ft 272kts
21-Jul-19 12:05 39.732412 -82.512335 334 18029ft 272kts
21-Jul-19 12:06 39.803026 -82.548009 334 18010ft 272kts
21-Jul-19 12:07 39.873729 -82.583804 334 18007ft 272kts
21-Jul-19 12:08 39.943518 -82.620889 328 18334ft 270kts
21-Jul-19 12:09 40.009240 -82.693330 312 17553ft 330kts
21-Jul-19 12:10 40.070497 -82.768992 312 18347ft 263kts
21-Jul-19 12:11 40.122949 -82.832960 313 19904ft 265kts
21-Jul-19 12:12 40.182330 -82.893766 340 21584ft 277kts
21-Jul-19 12:13 40.265470 -82.909547 359 21689ft 288kts
21-Jul-19 12:14 40.342975 -82.899456 2 21987ft 275kts
21-Jul-19 12:15 40.418973 -82.879256 356 21835ft 281kts
21-Jul-19 12:16 40.494399 -82.901587 335 20777ft 279kts
21-Jul-19 12:17 40.566671 -82.938692 333 19692ft 278kts
21-Jul-19 12:18 40.638477 -82.976177 333 18608ft 277kts
21-Jul-19 12:19 40.709403 -83.013021 333 17991ft 264kts
21-Jul-19 12:20 40.777096 -83.048324 333 17992ft 267kts
21-Jul-19 12:21 40.847649 -83.085248 333 17981ft 275kts
21-Jul-19 12:22 40.918910 -83.122508 333 17978ft 276kts
21-Jul-19 12:23 40.990330 -83.159980 333 17973ft 276kts
21-Jul-19 12:24 41.061764 -83.197534 333 17972ft 275kts
21-Jul-19 12:25 41.135594 -83.225737 342 17946ft 280kts
21-Jul-19 12:26 41.213383 -83.251466 341 16910ft 291kts
21-Jul-19 12:27 41.291584 -83.277141 341 15817ft 284kts
21-Jul-19 12:28 41.365559 -83.301007 341 14724ft 264kts
21-Jul-19 12:29 41.435910 -83.323931 341 13636ft 257kts
21-Jul-19 12:30 41.505653 -83.346773 341 12551ft 256kts
21-Jul-19 12:31 41.574714 -83.369398 341 11463ft 254kts
21-Jul-19 12:32 41.643450 -83.391992 342 10372ft 253kts
21-Jul-19 12:33 41.710224 -83.413917 342 9281ft 238kts
21-Jul-19 12:34 41.770846 -83.434139 339 8962ft 210kts
21-Jul-19 12:35 41.804196 -83.487296 274 8776ft 197kts
21-Jul-19 12:36 41.815089 -83.560599 313 7969ft 208kts
21-Jul-19 12:37 41.860844 -83.603723 337 7963ft 200kts
21-Jul-19 12:38 41.914922 -83.579592 25 7196ft 231kts
21-Jul-19 12:39 41.972073 -83.539753 26 6135ft 235kts
21-Jul-19 12:40 42.026522 -83.500151 27 4695ft 203kts
21-Jul-19 12:41 42.072519 -83.466540 27 3552ft 177kts
21-Jul-19 12:42 42.112262 -83.437394 28 2684ft 130kts
21-Jul-19 12:43 42.142867 -83.414982 28 2128ft 125kts
21-Jul-19 12:44 42.174009 -83.392089 29 1329ft 123kts
21-Jul-19 12:45 42.199533 -83.373348 30 806ft 94kts
21-Jul-19 12:46 42.209855 -83.365660 29 651ft 15kts
21-Jul-19 12:47 42.211874 -83.362851 99 651ft 0kts
21-Jul-19 12:48 42.214942 -83.360257 29 651ft 16kts
21-Jul-19 12:49 42.218227 -83.354812 88 651ft 31kts
21-Jul-19 12:51 42.218333 -83.346160 91 651ft 17kts
21-Jul-19 12:52 42.222652 -83.341927 29 651ft 23kts
21-Jul-19 12:53 42.227871 -83.338123 31 651ft 20kts
21-Jul-19 12:54 42.232541 -83.334683 31 651ft 15kts
21-Jul-19 12:55 42.233526 -83.331085 43 651ft 15kts
21-Jul-19 12:56 42.234079 -83.329569 131 651ft 0kts
21-Jul-19 12:57 42.234079 -83.329569 131 651ft 0kts
21-Jul-19 12:58 42.234079 -83.329569 131 651ft 0kts
21-Jul-19 12:59 42.234079 -83.329569 131 651ft 0kts

Navigation Log

Ident Type
Flight plan parsing failed, navigation log unavailable